Time;durP1;ratioP1;P1;durP2;ratioP2;P2;SDS_P1;SDS_P2;PMS_P1;PMS_P2;Temp;Humidity;BMP_temperature;BMP_pressure;BME280_temperature;BME280_humidity;BME280_pressure;Samples;Min_cycle;Max_cycle;Signal;HPM_P1;HPM_P2
2022/04/10 00:02:29;;;;;;;10.50;2.53;;;;;;;1.68;100.00;101730.59;5069129;28;20048;-57
2022/04/10 00:04:57;;;;;;;10.98;2.47;;;;;;;1.70;100.00;101721.06;5067747;28;20044;-57
2022/04/10 00:07:25;;;;;;;10.52;3.10;;;;;;;1.69;100.00;101721.94;5068586;28;20052;-57
2022/04/10 00:09:53;;;;;;;10.40;2.67;;;;;;;1.69;100.00;101730.59;5067485;28;20049;-58
2022/04/10 00:12:21;;;;;;;12.05;3.25;;;;;;;1.63;100.00;101729.81;5068902;28;20064;-58
2022/04/10 00:14:49;;;;;;;9.65;2.33;;;;;;;1.62;100.00;101731.56;5068046;28;20078;-58
2022/04/10 00:17:17;;;;;;;8.77;2.55;;;;;;;1.61;100.00;101737.59;5068149;28;20056;-58
2022/04/10 00:19:47;;;;;;;13.07;2.60;;;;;;;1.55;100.00;101729.91;5066943;28;20045;-58
2022/04/10 00:22:15;;;;;;;6.63;2.60;;;;;;;1.57;100.00;101735.06;5068661;28;20066;-57
2022/04/10 00:24:43;;;;;;;10.18;3.13;;;;;;;1.50;100.00;101742.94;5068422;28;20036;-58
2022/04/10 00:27:13;;;;;;;11.80;3.17;;;;;;;1.41;100.00;101743.03;5067486;28;20055;-58
2022/04/10 00:29:42;;;;;;;9.57;2.85;;;;;;;1.46;100.00;101741.25;5068645;28;20777;-58
2022/04/10 00:32:10;;;;;;;11.18;2.63;;;;;;;1.42;100.00;101742.19;5068546;28;20102;-57
2022/04/10 00:34:38;;;;;;;9.07;3.15;;;;;;;1.40;100.00;101737.88;5066660;28;20051;-57
2022/04/10 00:37:08;;;;;;;13.75;2.88;;;;;;;1.35;100.00;101736.22;5068288;28;20033;-58
2022/04/10 00:39:36;;;;;;;7.20;2.42;;;;;;;1.37;100.00;101733.59;5067205;28;20048;-58
2022/04/10 00:42:05;;;;;;;11.32;3.40;;;;;;;1.37;100.00;101723.22;5068235;28;20117;-58
2022/04/10 00:44:34;;;;;;;8.10;2.65;;;;;;;1.30;100.00;101722.44;5067800;28;20055;-50
2022/04/10 00:47:03;;;;;;;6.72;2.50;;;;;;;1.35;100.00;101727.59;5067884;28;20048;-52
2022/04/10 00:49:31;;;;;;;8.98;3.13;;;;;;;1.31;100.00;101723.28;5066472;28;20505;-49
2022/04/10 00:52:01;;;;;;;8.25;2.65;;;;;;;1.29;100.00;101722.47;5067230;28;20496;-48
2022/04/10 00:54:31;;;;;;;12.80;2.90;;;;;;;1.22;100.00;101731.19;5068077;28;20057;-52
2022/04/10 00:57:00;;;;;;;11.25;2.80;;;;;;;1.25;100.00;101725.97;5068204;28;20059;-54
2022/04/10 00:59:29;;;;;;;10.02;2.67;;;;;;;1.26;100.00;101722.50;5067071;28;20828;-53
2022/04/10 01:01:58;;;;;;;7.38;2.47;;;;;;;1.25;100.00;101721.63;5067813;28;20491;-52
2022/04/10 01:04:42;;;;;;;11.32;3.15;;;;;;;1.24;100.00;101725.13;5066544;28;20044;-54
2022/04/10 01:07:12;;;;;;;13.68;3.03;;;;;;;1.23;100.00;101713.03;5068482;28;20526;-52
2022/04/10 01:09:42;;;;;;;7.07;2.42;;;;;;;1.24;100.00;101714.75;5068091;28;20485;-51
2022/04/10 01:12:11;;;;;;;10.60;2.53;;;;;;;1.20;100.00;101727.75;5067929;28;20098;-54
2022/04/10 01:14:41;;;;;;;11.38;2.63;;;;;;;1.12;100.00;101725.28;5067865;28;20597;-54
2022/04/10 01:17:11;;;;;;;11.48;2.85;;;;;;;1.14;100.00;101724.34;5067816;28;20041;-54
2022/04/10 01:19:40;;;;;;;7.28;2.60;;;;;;;1.07;100.00;101729.66;5065000;28;20049;-54
2022/04/10 01:22:10;;;;;;;7.70;2.53;;;;;;;1.03;100.00;101726.22;5067654;28;20438;-52
2022/04/10 01:24:42;;;;;;;8.65;2.45;;;;;;;1.01;100.00;101728.84;5067823;28;20401;-52
2022/04/10 01:27:10;;;;;;;;;;;;;;;1.03;100.00;101726.22;5068622;28;20123;-54
2022/04/10 01:29:38;;;;;;;6.97;2.45;;;;;;;0.97;100.00;101729.75;5067953;28;20329;-53
2022/04/10 01:32:08;;;;;;;9.85;2.40;;;;;;;0.93;100.00;101732.41;5067471;28;20040;-53
2022/04/10 01:34:39;;;;;;;10.57;2.63;;;;;;;0.93;100.00;101733.25;5066546;28;20391;-53
2022/04/10 01:37:09;;;;;;;6.95;2.40;;;;;;;0.92;100.00;101741.03;5067536;28;20041;-52
2022/04/10 01:39:39;;;;;;;6.45;2.55;;;;;;;0.95;100.00;101748.75;5067483;28;20056;-50
2022/04/10 01:42:07;;;;;;;8.77;2.30;;;;;;;0.94;100.00;101740.16;5067402;28;20568;-52
2022/04/10 01:44:41;;;;;;;10.95;2.83;;;;;;;0.91;100.00;101742.75;5067636;28;20380;-52
2022/04/10 01:47:10;;;;;;;7.93;2.75;;;;;;;0.97;100.00;101747.03;5099757;28;20045;-53
2022/04/10 01:49:38;;;;;;;10.90;2.83;;;;;;;0.93;100.00;101753.13;5066261;28;20059;-50
2022/04/10 01:52:07;;;;;;;10.82;3.33;;;;;;;0.88;100.00;101752.28;5071260;28;20487;-52
2022/04/10 01:54:36;;;;;;;8.80;2.42;;;;;;;0.92;100.00;101748.81;5071380;28;20479;-53
2022/04/10 01:57:06;;;;;;;13.23;2.88;;;;;;;0.94;100.00;101747.91;5071538;28;20055;-53
2022/04/10 01:59:34;;;;;;;7.68;2.63;;;;;;;0.89;100.00;101749.69;5071258;28;20052;-50
2022/04/10 02:02:03;;;;;;;13.63;2.83;;;;;;;0.88;100.00;101758.31;5070945;28;20098;-54
2022/04/10 02:04:31;;;;;;;10.98;3.10;;;;;;;0.87;100.00;101760.94;5069757;28;20499;-51
2022/04/10 02:06:59;;;;;;;7.75;3.00;;;;;;;0.87;100.00;101764.38;5071466;28;20119;-58
2022/04/10 02:09:27;;;;;;;9.60;3.13;;;;;;;0.83;100.00;101760.09;5071159;28;20068;-53
2022/04/10 02:11:55;;;;;;;9.32;3.10;;;;;;;0.79;100.00;101761.00;5071288;28;20139;-51
2022/04/10 02:14:25;;;;;;;10.85;2.92;;;;;;;0.79;100.00;101766.19;5070577;28;20048;-51
2022/04/10 02:16:53;;;;;;;11.32;3.55;;;;;;;0.76;100.00;101764.47;5070631;28;20640;-52
2022/04/10 02:19:21;;;;;;;13.52;3.60;;;;;;;0.73;100.00;101759.34;5069389;28;20673;-53
2022/04/10 02:21:49;;;;;;;12.23;3.90;;;;;;;0.73;100.00;101759.34;5070878;28;20595;-52
2022/04/10 02:24:17;;;;;;;11.23;3.65;;;;;;;0.70;100.00;101766.28;5070842;28;20052;-53
2022/04/10 02:26:45;;;;;;;9.90;3.78;;;;;;;0.66;100.00;101770.63;5070779;28;20040;-52
2022/04/10 02:29:13;;;;;;;11.48;3.42;;;;;;;0.70;100.00;101772.31;5070444;28;20110;-52
2022/04/10 02:31:43;;;;;;;11.48;3.53;;;;;;;0.73;100.00;101764.50;5070621;28;20048;-50
2022/04/10 02:34:11;;;;;;;9.98;3.42;;;;;;;0.68;100.00;101768.88;5068843;28;20102;-50
2022/04/10 02:36:39;;;;;;;15.02;3.50;;;;;;;0.71;100.00;101768.88;5070870;28;20044;-53
2022/04/10 02:39:07;;;;;;;12.25;3.17;;;;;;;0.73;100.00;101769.69;5070280;28;20052;-52
2022/04/10 02:41:35;;;;;;;16.83;4.28;;;;;;;0.69;100.00;101764.56;5070480;28;20518;-50
2022/04/10 02:44:03;;;;;;;9.50;3.58;;;;;;;0.65;100.00;101771.50;5070362;28;20036;-52
2022/04/10 02:46:31;;;;;;;13.50;5.07;;;;;;;0.66;100.00;101765.44;5070121;28;20040;-50
2022/04/10 02:49:01;;;;;;;14.32;4.10;;;;;;;0.64;100.00;101769.78;5068849;28;20079;-54
2022/04/10 02:51:29;;;;;;;9.27;3.58;;;;;;;0.61;100.00;101759.44;5069997;28;20052;-58
2022/04/10 02:53:57;;;;;;;11.60;4.47;;;;;;;0.64;100.00;101775.81;5070019;28;20060;-54
2022/04/10 02:56:25;;;;;;;13.23;4.65;;;;;;;0.62;100.00;101768.94;5069865;28;20048;-53
2022/04/10 02:58:53;;;;;;;10.77;3.80;;;;;;;0.61;100.00;101769.81;5070148;28;20080;-52
2022/04/10 03:01:21;;;;;;;14.77;4.05;;;;;;;0.60;100.00;101768.97;5069125;28;20510;-54
2022/04/10 03:03:49;;;;;;;11.43;3.97;;;;;;;0.62;100.00;101769.78;5068398;28;20429;-54
2022/04/10 03:06:19;;;;;;;11.57;4.10;;;;;;;0.56;100.00;101777.63;5069944;28;21254;-53
2022/04/10 03:08:47;;;;;;;10.70;3.47;;;;;;;0.62;100.00;101780.16;5062386;28;20044;-53
2022/04/10 03:11:15;;;;;;;10.48;4.00;;;;;;;0.57;100.00;101784.50;5060207;28;20513;-55
2022/04/10 03:13:43;;;;;;;12.05;4.03;;;;;;;0.61;100.00;101795.69;5066517;28;20536;-52
2022/04/10 03:16:11;;;;;;;10.32;3.40;;;;;;;0.58;100.00;101806.09;5067454;28;20119;-53
2022/04/10 03:18:39;;;;;;;11.00;4.22;;;;;;;0.57;100.00;101807.78;5052911;28;20072;-54
2022/04/10 03:21:07;;;;;;;10.88;3.95;;;;;;;0.53;100.00;101800.94;5061458;28;20446;-50
2022/04/10 03:23:37;;;;;;;13.63;4.20;;;;;;;0.46;100.00;101802.72;5066341;28;20044;-54
2022/04/10 03:26:05;;;;;;;13.68;4.68;;;;;;;0.42;100.00;101801.00;5067400;28;20049;-54
2022/04/10 03:28:33;;;;;;;13.20;3.90;;;;;;;0.46;100.00;101805.31;5065870;28;20055;-52
2022/04/10 03:31:01;;;;;;;11.02;3.50;;;;;;;0.44;100.00;101808.78;5060715;28;20442;-54
2022/04/10 03:33:29;;;;;;;11.95;4.25;;;;;;;0.46;100.00;101813.09;5065814;28;20136;-49
2022/04/10 03:35:58;;;;;;;9.38;3.50;;;;;;;0.45;100.00;101811.38;5065376;28;20512;-54
2022/04/10 03:38:26;;;;;;;14.23;3.60;;;;;;;0.44;100.00;101812.22;5064965;28;20074;-52
2022/04/10 03:40:55;;;;;;;11.85;4.35;;;;;;;0.48;100.00;101800.97;5060623;28;20052;-52
2022/04/10 03:43:24;;;;;;;11.23;3.30;;;;;;;0.49;100.00;101807.00;5061089;28;20044;-53
2022/04/10 03:45:53;;;;;;;8.18;2.90;;;;;;;0.48;100.00;101800.13;5049379;28;20053;-52
2022/04/10 03:48:21;;;;;;;12.18;3.95;;;;;;;0.49;100.00;101807.88;5065077;28;20044;-52
2022/04/10 03:50:49;;;;;;;10.73;3.20;;;;;;;0.50;100.00;101809.59;5066049;28;20040;-48
2022/04/10 03:53:18;;;;;;;10.48;2.83;;;;;;;0.54;100.00;101812.16;5063884;28;20049;-52
2022/04/10 03:55:47;;;;;;;11.30;3.38;;;;;;;0.54;100.00;101809.56;5056677;28;20428;-53
2022/04/10 03:58:17;;;;;;;12.57;3.30;;;;;;;0.54;100.00;101814.75;5066388;28;20036;-52
2022/04/10 04:00:46;;;;;;;8.15;2.75;;;;;;;0.53;100.00;101810.44;5066540;28;20044;-52
2022/04/10 04:03:14;;;;;;;13.52;3.38;;;;;;;0.53;100.00;101811.28;5057870;28;20056;-51
2022/04/10 04:05:42;;;;;;;11.50;2.72;;;;;;;0.48;100.00;101808.75;5055194;28;20047;-51
2022/04/10 04:08:10;;;;;;;8.05;2.78;;;;;;;0.48;100.00;101816.50;5056881;28;20095;-51
2022/04/10 04:10:38;;;;;;;9.32;2.83;;;;;;;0.52;100.00;101814.75;5069235;28;20052;-52
2022/04/10 04:13:06;;;;;;;9.50;2.47;;;;;;;0.51;100.00;101820.81;5068177;28;20131;-54
2022/04/10 04:15:36;;;;;;;9.85;3.08;;;;;;;0.48;100.00;101823.44;5068839;28;20056;-50
2022/04/10 04:18:04;;;;;;;14.30;3.28;;;;;;;0.52;100.00;101827.72;5065012;28;20454;-53
2022/04/10 04:20:32;;;;;;;9.82;2.80;;;;;;;0.42;100.00;101836.41;5068562;28;20052;-52
2022/04/10 04:23:00;;;;;;;10.80;2.75;;;;;;;0.40;100.00;101836.41;5068367;28;20052;-54
2022/04/10 04:25:29;;;;;;;11.02;2.80;;;;;;;0.39;100.00;101837.28;5068665;28;20411;-58
2022/04/10 04:27:57;;;;;;;13.45;3.53;;;;;;;0.37;100.00;101833.84;5067721;28;20048;-58
2022/04/10 04:30:25;;;;;;;12.10;3.00;;;;;;;0.35;100.00;101832.13;5068420;28;20746;-58
2022/04/10 04:32:56;;;;;;;8.05;2.90;;;;;;;0.31;100.00;101844.22;5067144;28;20912;-58
2022/04/10 04:35:24;;;;;;;12.95;2.75;;;;;;;0.30;100.00;101845.09;5068391;28;20446;-58
2022/04/10 04:37:52;;;;;;;10.10;2.90;;;;;;;0.32;100.00;101841.63;5067789;28;20194;-58
2022/04/10 04:40:20;;;;;;;10.35;2.67;;;;;;;0.31;100.00;101842.53;5068193;28;20064;-58
2022/04/10 04:42:49;;;;;;;10.88;2.90;;;;;;;0.26;100.00;101836.50;5068433;28;20090;-58
2022/04/10 04:45:18;;;;;;;8.15;3.05;;;;;;;0.31;100.00;101842.53;5068161;28;20487;-58
2022/04/10 04:47:46;;;;;;;11.52;3.30;;;;;;;0.36;100.00;101851.97;5066896;28;20052;-58
2022/04/10 04:50:16;;;;;;;9.77;2.67;;;;;;;0.31;100.00;101844.22;5068484;28;20450;-58
2022/04/10 04:52:44;;;;;;;10.00;2.80;;;;;;;0.28;100.00;101842.53;5067775;28;20482;-57
2022/04/10 04:55:12;;;;;;;12.32;2.90;;;;;;;0.26;100.00;101838.22;5068175;28;20053;-57
2022/04/10 04:57:40;;;;;;;11.32;3.22;;;;;;;0.32;100.00;101835.59;5068405;28;20098;-58
2022/04/10 05:00:09;;;;;;;8.95;2.60;;;;;;;0.32;100.00;101840.78;5067342;28;20048;-57
2022/04/10 05:02:37;;;;;;;10.35;3.00;;;;;;;0.31;100.00;101846.81;5067339;28;20053;-57
2022/04/10 05:05:06;;;;;;;9.25;2.78;;;;;;;0.33;100.00;101853.72;5066159;28;20413;-58
2022/04/10 05:07:35;;;;;;;7.63;2.50;;;;;;;0.33;100.00;101855.44;5067902;28;20434;-57
2022/04/10 05:10:04;;;;;;;7.05;2.80;;;;;;;0.30;100.00;101852.84;5067843;28;20055;-57
2022/04/10 05:12:32;;;;;;;9.52;2.97;;;;;;;0.31;100.00;101852.88;5067790;28;20053;-57
2022/04/10 05:15:01;;;;;;;7.45;2.97;;;;;;;0.31;100.00;101850.28;5068093;28;20049;-57
2022/04/10 05:17:29;;;;;;;13.88;3.25;;;;;;;0.29;100.00;101851.16;5067808;28;20086;-58
2022/04/10 05:19:57;;;;;;;9.13;2.75;;;;;;;0.26;100.00;101858.91;5066517;28;20037;-57
2022/04/10 05:22:25;;;;;;;10.30;3.75;;;;;;;0.30;100.00;101860.63;5067917;28;20514;-57
2022/04/10 05:25:01;;;;;;;10.25;3.08;;;;;;;0.27;100.00;101863.22;5068362;28;20048;-57
2022/04/10 05:27:29;;;;;;;9.25;3.10;;;;;;;0.32;100.00;101862.34;5070328;28;20040;-58
2022/04/10 05:29:57;;;;;;;12.35;3.00;;;;;;;0.28;100.00;101865.81;5071510;28;20407;-57
2022/04/10 05:32:25;;;;;;;9.73;2.65;;;;;;;0.29;100.00;101867.53;5071483;28;20083;-57
2022/04/10 05:34:53;;;;;;;12.15;2.30;;;;;;;0.26;100.00;101867.56;5069991;28;20056;-57
2022/04/10 05:37:21;;;;;;;8.75;3.00;;;;;;;0.31;100.00;101870.09;5071559;28;20044;-57
2022/04/10 05:39:49;;;;;;;8.13;2.78;;;;;;;0.28;100.00;101867.56;5070819;28;20044;-52
2022/04/10 05:42:19;;;;;;;9.98;2.92;;;;;;;0.29;100.00;101877.03;5071456;28;20109;-58
2022/04/10 05:44:47;;;;;;;11.68;2.88;;;;;;;0.32;100.00;101879.59;5071556;28;20517;-57
2022/04/10 05:47:15;;;;;;;10.23;2.95;;;;;;;0.32;100.00;101885.63;5069880;28;20075;-57
2022/04/10 05:49:43;;;;;;;12.18;3.30;;;;;;;0.35;100.00;101892.50;5069781;28;20102;-58
2022/04/10 05:52:11;;;;;;;9.20;3.33;;;;;;;0.38;100.00;101895.06;5071537;28;20094;-57
2022/04/10 05:54:39;;;;;;;14.25;3.88;;;;;;;0.40;100.00;101893.34;5071333;28;20434;-58
2022/04/10 05:57:07;;;;;;;10.63;3.95;;;;;;;0.42;100.00;101893.34;5069936;28;20079;-57
2022/04/10 05:59:37;;;;;;;12.48;3.97;;;;;;;0.48;100.00;101901.94;5071205;28;20044;-57
2022/04/10 06:02:05;;;;;;;9.43;3.80;;;;;;;0.54;100.00;101905.34;5071122;28;20491;-57
2022/04/10 06:04:34;;;;;;;16.08;4.45;;;;;;;0.56;100.00;101917.44;5069604;28;20501;-58
2022/04/10 06:07:02;;;;;;;10.15;4.07;;;;;;;0.60;100.00;101919.13;5070994;28;20683;-57
2022/04/10 06:09:30;;;;;;;14.85;4.85;;;;;;;0.65;100.00;101921.66;5070867;28;20044;-57
2022/04/10 06:11:58;;;;;;;12.02;4.10;;;;;;;0.72;100.00;101922.50;5071083;28;20456;-58
2022/04/10 06:14:26;;;;;;;13.27;4.15;;;;;;;0.78;100.00;101920.72;5070841;28;20411;-58
2022/04/10 06:16:55;;;;;;;13.77;4.30;;;;;;;0.89;100.00;101918.06;5070131;28;20094;-58
2022/04/10 06:19:24;;;;;;;13.18;4.13;;;;;;;0.96;100.00;101926.66;5068073;28;20048;-58
2022/04/10 06:21:52;;;;;;;13.82;4.85;;;;;;;1.04;100.00;101930.03;5070668;28;20045;-58
2022/04/10 06:24:21;;;;;;;12.38;4.03;;;;;;;1.23;100.00;101932.44;5070835;28;20101;-58
2022/04/10 06:26:50;;;;;;;12.52;4.40;;;;;;;1.27;100.00;101941.91;5070558;28;20064;-58
2022/04/10 06:29:18;;;;;;;13.65;4.18;;;;;;;1.36;100.00;101936.66;5069277;28;20064;-58
2022/04/10 06:31:46;;;;;;;11.45;4.03;;;;;;;1.48;100.00;101935.69;5070370;28;20055;-51
2022/04/10 06:34:16;;;;;;;9.73;4.20;;;;;;;1.55;100.00;101941.69;5068877;28;20041;-52
2022/04/10 06:36:44;;;;;;;10.35;3.85;;;;;;;1.67;100.00;101936.38;5069310;28;20063;-58
2022/04/10 06:39:13;;;;;;;15.40;4.47;;;;;;;1.69;100.00;101930.28;5070164;28;20068;-58
2022/04/10 06:41:41;;;;;;;11.32;4.05;;;;;;;1.79;100.00;101936.22;5070516;28;20138;-58
2022/04/10 06:44:09;;;;;;;11.15;4.40;;;;;;;1.93;100.00;101933.47;5069953;28;20372;-58
2022/04/10 06:46:37;;;;;;;14.35;4.40;;;;;;;2.06;100.00;101936.81;5070805;28;20055;-59
2022/04/10 06:49:06;;;;;;;12.90;4.50;;;;;;;2.23;100.00;101941.78;5068441;28;20051;-58
2022/04/10 06:51:35;;;;;;;11.75;3.95;;;;;;;2.33;100.00;101938.19;5070576;28;20795;-58
2022/04/10 06:54:04;;;;;;;13.07;4.05;;;;;;;2.50;100.00;101944.88;5070080;28;20975;-57
2022/04/10 06:56:32;;;;;;;9.77;3.63;;;;;;;2.71;100.00;101961.91;5070287;28;20059;-58
2022/04/10 06:59:00;;;;;;;14.23;3.63;;;;;;;3.00;100.00;101976.19;5069441;28;20040;-54
2022/04/10 07:01:28;;;;;;;9.75;3.25;;;;;;;3.13;100.00;101982.91;5069726;28;20080;-53
2022/04/10 07:04:03;;;;;;;9.82;3.40;;;;;;;3.24;100.00;101979.31;5068327;28;20071;-49
2022/04/10 07:06:32;;;;;;;9.68;2.75;;;;;;;3.38;100.00;101985.13;5070379;28;20075;-52
2022/04/10 07:09:01;;;;;;;11.57;3.42;;;;;;;3.45;100.00;101991.94;5069826;28;20439;-53
2022/04/10 07:11:31;;;;;;;9.70;3.05;;;;;;;3.52;100.00;101996.16;5070184;28;20101;-54
2022/04/10 07:13:59;;;;;;;9.45;2.97;;;;;;;3.58;100.00;101989.13;5069969;28;20530;-51
2022/04/10 07:16:27;;;;;;;6.18;2.20;;;;;;;3.60;100.00;101998.63;5069846;28;20143;-52
2022/04/10 07:18:55;;;;;;;12.30;2.50;;;;;;;3.70;100.00;102004.53;5068016;28;20127;-54
2022/04/10 07:24:07;;;;;;;9.43;1.98;;;;;;;3.81;100.00;102006.94;5069631;28;20147;-54
2022/04/10 07:26:36;;;;;;;6.88;1.83;;;;;;;3.84;100.00;102012.94;5068900;28;20044;-53
2022/04/10 07:29:04;;;;;;;6.53;1.85;;;;;;;3.87;100.00;102010.28;5069261;28;20643;-58
2022/04/10 07:31:32;;;;;;;7.78;2.00;;;;;;;3.83;100.00;102007.75;5069487;28;20135;-54
2022/04/10 07:34:00;;;;;;;9.15;1.90;;;;;;;3.94;100.00;102003.22;5067817;28;20127;-53
2022/04/10 07:36:28;;;;;;;5.25;1.45;;;;;;;3.93;100.00;102009.31;5069598;28;20052;-54
2022/04/10 07:38:57;;;;;;;4.53;1.27;;;;;;;4.03;100.00;102017.81;5069204;28;20075;-59
2022/04/10 07:41:27;;;;;;;5.13;1.75;;;;;;;4.24;100.00;102016.53;5068999;28;20060;-53
2022/04/10 07:43:55;;;;;;;7.10;1.85;;;;;;;4.31;100.00;102017.25;5068743;28;20052;-58
2022/04/10 07:49:09;;;;;;;2.80;1.15;;;;;;;4.75;100.00;102015.47;5067242;28;20041;-53
2022/04/10 07:51:37;;;;;;;6.50;1.55;;;;;;;4.87;100.00;102016.97;5069780;28;20049;-58
2022/04/10 07:54:05;;;;;;;4.82;1.50;;;;;;;5.08;100.00;102018.19;5069027;28;20048;-54
2022/04/10 07:56:35;;;;;;;5.25;1.52;;;;;;;5.37;100.00;102021.84;5069625;28;20102;-59
2022/04/10 07:59:03;;;;;;;4.65;1.20;;;;;;;5.50;98.70;102020.66;5068675;28;20049;-59
2022/04/10 08:01:31;;;;;;;5.03;1.50;;;;;;;5.74;98.53;102016.56;5068976;28;20072;-60
2022/04/10 08:04:00;;;;;;;4.63;1.88;;;;;;;6.05;98.94;102028.84;5067159;28;20048;-58
2022/04/10 08:06:28;;;;;;;5.80;1.10;;;;;;;6.19;94.51;102033.69;5069317;28;20483;-55
2022/04/10 08:08:56;;;;;;;6.18;1.10;;;;;;;6.24;91.70;102039.66;5068463;28;20119;-53
2022/04/10 08:11:24;;;;;;;6.07;1.08;;;;;;;6.52;89.66;102035.41;5068931;28;20573;-55
2022/04/10 08:13:54;;;;;;;5.05;1.13;;;;;;;6.78;89.71;102032.00;5068413;28;20068;-53
2022/04/10 08:16:22;;;;;;;5.25;0.90;;;;;;;6.88;86.41;102033.41;5068729;28;20105;-55
2022/04/10 08:18:52;;;;;;;4.15;1.10;;;;;;;7.05;87.87;102026.84;5067175;28;20252;-59
2022/04/10 08:21:20;;;;;;;5.00;1.00;;;;;;;7.26;85.37;102038.38;5068461;28;20044;-60
2022/04/10 08:23:49;;;;;;;2.50;0.88;;;;;;;7.47;84.43;102036.78;5067381;28;20053;-62
2022/04/10 08:26:17;;;;;;;3.13;1.10;;;;;;;7.57;83.68;102038.22;5069212;28;20071;-60
2022/04/10 08:28:45;;;;;;;4.78;1.10;;;;;;;7.84;83.23;102045.16;5068553;28;20495;-53
2022/04/10 08:31:14;;;;;;;2.33;0.90;;;;;;;8.12;82.62;102040.66;5068259;28;20045;-54
2022/04/10 08:33:43;;;;;;;6.63;1.30;;;;;;;8.22;81.22;102045.59;5067206;28;20411;-59
2022/04/10 08:36:11;;;;;;;4.35;1.02;;;;;;;8.20;79.21;102048.28;5068382;28;20048;-55
2022/04/10 08:38:39;;;;;;;4.35;1.17;;;;;;;8.19;79.17;102043.09;5068404;28;20048;-53
2022/04/10 08:41:08;;;;;;;2.90;1.10;;;;;;;8.18;77.78;102046.59;5068278;28;20139;-55
2022/04/10 08:43:37;;;;;;;4.55;1.00;;;;;;;8.23;78.21;102045.53;5068547;28;20183;-56
2022/04/10 08:46:06;;;;;;;6.10;1.75;;;;;;;8.44;78.74;102049.16;5068726;28;20048;-61
2022/04/10 08:48:37;;;;;;;3.72;0.90;;;;;;;8.58;75.21;102051.28;5067252;28;20098;-58
2022/04/10 08:51:10;;;;;;;6.72;1.42;;;;;;;8.72;72.90;102055.16;5068249;28;20049;-55
2022/04/10 08:53:39;;;;;;;3.72;0.85;;;;;;;9.00;73.62;102049.69;5068618;28;20052;-54
2022/04/10 08:56:09;;;;;;;3.65;1.00;;;;;;;9.10;70.72;102052.81;5068498;28;20041;-56
2022/04/10 08:58:37;;;;;;;3.15;0.90;;;;;;;9.40;70.67;102049.88;5068353;28;20886;-55
2022/04/10 09:01:05;;;;;;;5.70;1.15;;;;;;;9.45;68.61;102054.00;5067426;28;20041;-54
2022/04/10 09:03:33;;;;;;;4.88;1.35;;;;;;;9.68;70.23;102054.84;5066654;28;20510;-54
2022/04/10 09:06:04;;;;;;;5.00;1.15;;;;;;;9.98;68.70;102055.28;5067584;28;20052;-59
2022/04/10 09:08:32;;;;;;;6.70;1.08;;;;;;;10.20;69.37;102054.34;5067800;28;20074;-59
2022/04/10 09:11:04;;;;;;;3.90;1.10;;;;;;;10.30;66.04;102060.91;5067629;28;20143;-59
2022/04/10 09:13:34;;;;;;;4.05;1.10;;;;;;;10.33;62.75;102065.16;5067728;28;20063;-59
2022/04/10 09:16:08;;;;;;;4.78;0.93;;;;;;;10.08;62.43;102065.41;5068192;28;20365;-59
2022/04/10 09:18:53;;;;;;;4.20;1.00;;;;;;;9.80;65.16;102071.84;5067105;28;20106;-59
2022/04/10 09:21:25;;;;;;;5.55;1.00;;;;;;;10.36;63.73;102064.22;5066752;28;20056;-59
2022/04/10 09:24:04;;;;;;;2.75;0.70;;;;;;;10.62;63.52;102065.66;5067642;28;20056;-59
2022/04/10 09:26:48;;;;;;;4.20;1.00;;;;;;;10.66;58.57;102069.84;5068496;28;20487;-59
2022/04/10 09:29:18;;;;;;;4.97;1.00;;;;;;;10.71;56.44;102074.91;5066039;28;20143;-59
2022/04/10 09:31:47;;;;;;;7.22;2.67;;;;;;;10.86;58.38;102071.56;5067950;28;20051;-59
2022/04/10 09:34:17;;;;;;;4.57;1.00;;;;;;;10.55;57.95;102070.38;5066287;28;20128;-59
2022/04/10 09:37:07;;;;;;;4.90;1.25;;;;;;;10.71;58.53;102069.66;5067762;28;20052;-59
2022/04/10 09:39:37;;;;;;;2.83;0.90;;;;;;;10.73;57.63;102068.66;5067753;28;20052;-59
2022/04/10 09:42:06;;;;;;;3.85;1.27;;;;;;;10.87;57.77;102062.75;5067423;28;20048;-60
2022/04/10 09:44:36;;;;;;;7.30;1.17;;;;;;;11.07;59.12;102060.94;5068006;28;20056;-59
2022/04/10 09:47:06;;;;;;;3.97;1.00;;;;;;;11.01;57.36;102063.88;5067619;28;20056;-59
2022/04/10 09:49:36;;;;;;;3.65;0.90;;;;;;;11.10;53.08;102059.03;5066443;28;20162;-60
2022/04/10 09:52:08;;;;;;;3.63;1.00;;;;;;;11.36;52.75;102056.91;5067769;28;20066;-60
2022/04/10 09:54:41;;;;;;;4.03;0.80;;;;;;;11.62;52.33;102054.75;5068009;28;20127;-56
2022/04/10 09:57:12;;;;;;;2.03;0.77;;;;;;;12.09;54.00;102054.16;5067471;28;20049;-56
2022/04/10 09:59:43;;;;;;;2.47;0.75;;;;;;;12.32;52.81;102055.56;5067680;28;20049;-55
2022/04/10 10:02:13;;;;;;;3.90;0.90;;;;;;;11.98;51.95;102057.34;5065354;28;20139;-56
2022/04/10 10:04:43;;;;;;;4.22;1.40;;;;;;;11.72;52.27;102055.97;5065764;28;20111;-55
2022/04/10 10:07:15;;;;;;;7.20;1.20;;;;;;;12.12;53.53;102055.75;5067576;28;20052;-55
2022/04/10 10:09:44;;;;;;;4.60;1.05;;;;;;;12.21;51.45;102052.63;5067579;28;20044;-56
2022/04/10 10:12:13;;;;;;;6.38;0.88;;;;;;;12.06;52.22;102056.91;5069814;28;20072;-55
2022/04/10 10:14:41;;;;;;;2.65;0.88;;;;;;;11.85;48.56;102056.22;5071506;28;20067;-56
2022/04/10 10:17:10;;;;;;;5.78;0.93;;;;;;;11.94;50.17;102058.44;5070873;28;20178;-56
2022/04/10 10:19:41;;;;;;;3.78;0.80;;;;;;;11.68;49.83;102062.34;5069472;28;20098;-57
2022/04/10 10:22:11;;;;;;;3.92;1.10;;;;;;;12.14;50.85;102052.09;5071322;28;20044;-56
2022/04/10 10:24:49;;;;;;;5.90;1.15;;;;;;;12.41;51.25;102061.28;5070063;28;20143;-57
2022/04/10 10:27:40;;;;;;;4.75;0.98;;;;;;;12.18;49.61;102050.16;5070902;28;20048;-56
2022/04/10 10:30:18;;;;;;;2.63;0.65;;;;;;;12.18;44.88;102050.16;5026941;28;20052;-56
2022/04/10 10:32:48;;;;;;;4.97;0.85;;;;;;;12.43;45.95;102057.59;5069281;28;20044;-56
2022/04/10 10:35:31;;;;;;;3.60;0.95;;;;;;;12.19;48.42;102046.59;5071129;28;20118;-56
2022/04/10 10:38:00;;;;;;;4.03;1.30;;;;;;;12.69;45.48;102050.06;5070655;28;20048;-57
2022/04/10 10:40:31;;;;;;;4.55;0.90;;;;;;;13.04;47.13;102049.06;5070613;28;20475;-56
2022/04/10 10:43:03;;;;;;;2.42;0.95;;;;;;;12.96;44.04;102045.03;5070130;28;20125;-57
2022/04/10 10:45:36;;;;;;;3.78;1.00;;;;;;;12.75;43.56;102043.59;5070185;28;20511;-56
2022/04/10 10:48:37;;;;;;;2.75;0.90;;;;;;;12.84;46.34;102043.06;5068779;28;20581;-56
2022/04/10 10:51:43;;;;;;;3.60;0.98;;;;;;;12.74;44.77;102048.03;5070637;28;20040;-56
2022/04/10 10:54:20;;;;;;;2.30;0.70;;;;;;;13.19;41.55;102053.44;5070360;28;20045;-56
2022/04/10 10:56:51;;;;;;;2.90;0.68;;;;;;;12.81;38.74;102054.66;5070703;28;20040;-57
2022/04/10 10:59:28;;;;;;;3.42;0.60;;;;;;;12.80;40.80;102054.75;5070074;28;20389;-56
2022/04/10 11:02:02;;;;;;;2.88;0.80;;;;;;;13.47;39.99;102050.09;5069932;28;20495;-56
2022/04/10 11:04:34;;;;;;;4.63;0.82;;;;;;;13.35;40.58;102048.16;5068518;28;20094;-56
2022/04/10 11:07:24;;;;;;;3.63;1.23;;;;;;;13.97;41.30;102045.38;5070269;28;20399;-56
2022/04/10 11:09:58;;;;;;;3.60;0.90;;;;;;;13.90;41.93;102044.06;5062312;28;20065;-57
2022/04/10 11:12:34;;;;;;;2.38;1.00;;;;;;;13.12;38.50;102046.81;5059342;28;20229;-57
2022/04/10 11:15:17;;;;;;;2.70;0.73;;;;;;;13.12;36.25;102052.09;5054019;28;20053;-57
2022/04/10 11:17:46;;;;;;;3.70;1.00;;;;;;;13.43;36.23;102038.03;5052336;28;20040;-57
2022/04/10 11:20:16;;;;;;;3.40;0.85;;;;;;;13.71;36.22;102040.81;5054786;28;20052;-55
2022/04/10 11:22:50;;;;;;;3.63;0.90;;;;;;;14.07;36.79;102044.81;5056121;28;20048;-57
2022/04/10 11:25:20;;;;;;;5.30;1.02;;;;;;;13.94;37.61;102032.34;5058054;28;20084;-56
2022/04/10 11:27:52;;;;;;;2.17;0.80;;;;;;;14.46;37.53;102041.50;5052448;28;20052;-57
2022/04/10 11:30:25;;;;;;;4.30;0.95;;;;;;;14.61;37.21;102030.91;5055009;28;20488;-56
2022/04/10 11:32:55;;;;;;;3.92;0.77;;;;;;;14.93;37.97;102038.59;5054625;28;20041;-56
2022/04/10 11:35:26;;;;;;;5.50;0.90;;;;;;;15.24;37.17;102037.44;5056453;28;20041;-56
2022/04/10 11:37:56;;;;;;;3.90;0.80;;;;;;;15.48;35.88;102029.66;5052379;28;20037;-56
2022/04/10 11:40:27;;;;;;;3.67;0.75;;;;;;;15.67;35.99;102031.94;5054015;28;20526;-55